createdAt,value
2019-01-04T00:00:40.917Z,9.87
2019-01-04T00:03:10.855Z,11.27
2019-01-04T00:05:40.011Z,9.73
2019-01-04T00:08:09.446Z,8.27
2019-01-04T00:10:40.693Z,13.27
2019-01-04T00:13:10.094Z,10.13
2019-01-04T00:15:39.255Z,13.50
2019-01-04T00:18:09.076Z,9.27
2019-01-04T00:20:38.617Z,11.57
2019-01-04T00:23:07.780Z,9.90
2019-01-04T00:25:37.283Z,10.10
2019-01-04T00:28:06.715Z,7.83
2019-01-04T00:30:35.930Z,8.60
2019-01-04T00:33:11.449Z,9.23
2019-01-04T00:35:40.681Z,9.13
2019-01-04T00:38:10.057Z,11.13
2019-01-04T00:40:39.809Z,12.03
2019-01-04T00:43:12.349Z,10.87
2019-01-04T00:45:41.878Z,12.70
2019-01-04T00:48:11.757Z,13.43
2019-01-04T00:50:41.069Z,17.00
2019-01-04T00:53:10.521Z,11.70
2019-01-04T00:56:02.478Z,14.80
2019-01-04T00:58:38.045Z,11.40
2019-01-04T01:01:29.262Z,10.43
2019-01-04T01:04:18.114Z,11.47
2019-01-04T01:07:12.118Z,10.97
2019-01-04T01:10:11.618Z,11.33
2019-01-04T01:12:58.023Z,16.30
2019-01-04T01:15:50.294Z,14.03
2019-01-04T01:18:28.807Z,11.50
2019-01-04T01:21:37.490Z,13.30
2019-01-04T01:24:24.769Z,16.93
2019-01-04T01:27:25.702Z,11.83
2019-01-04T01:30:27.310Z,15.30
2019-01-04T01:33:22.040Z,15.40
2019-01-04T01:35:57.387Z,14.27
2019-01-04T01:39:04.091Z,10.90
2019-01-04T01:41:52.160Z,16.83
2019-01-04T01:44:41.016Z,15.73
2019-01-04T01:47:22.618Z,10.97
2019-01-04T01:50:11.368Z,13.63
2019-01-04T01:52:41.708Z,13.37
2019-01-04T01:55:16.938Z,12.60
2019-01-04T01:57:46.902Z,16.03
2019-01-04T02:00:16.134Z,13.97
2019-01-04T02:02:45.856Z,10.23
2019-01-04T02:05:15.379Z,12.37
2019-01-04T02:07:44.551Z,15.27
2019-01-04T02:10:14.270Z,11.87
2019-01-04T02:12:45.114Z,10.10
2019-01-04T02:15:14.352Z,10.10
2019-01-04T02:17:43.717Z,10.90
2019-01-04T02:20:14.470Z,8.90
2019-01-04T02:22:43.630Z,11.33
2019-01-04T02:25:13.063Z,9.07
2019-01-04T02:27:47.148Z,12.43
2019-01-04T02:30:16.565Z,6.57
2019-01-04T02:32:46.076Z,11.67
2019-01-04T02:35:21.724Z,12.73
2019-01-04T02:37:50.877Z,8.53
2019-01-04T02:40:20.325Z,15.57
2019-01-04T02:42:49.840Z,11.63
2019-01-04T02:45:20.181Z,11.10
2019-01-04T02:47:49.338Z,9.33
2019-01-04T02:50:18.804Z,10.30
2019-01-04T02:52:49.082Z,11.73
2019-01-04T02:55:18.239Z,8.00
2019-01-04T02:57:48.085Z,11.17
2019-01-04T03:00:17.253Z,9.23
2019-01-04T03:02:46.702Z,6.23
2019-01-04T03:05:16.171Z,10.13
2019-01-04T03:07:51.429Z,6.10
2019-01-04T03:10:22.178Z,7.87
2019-01-04T03:12:51.325Z,7.43
2019-01-04T03:15:20.775Z,7.73
2019-01-04T03:17:51.508Z,11.07
2019-01-04T03:20:20.659Z,9.40
2019-01-04T03:22:50.106Z,9.17
2019-01-04T03:25:19.294Z,8.13
2019-01-04T03:27:48.721Z,9.67
2019-01-04T03:30:21.162Z,12.33
2019-01-04T03:32:50.851Z,8.10
2019-01-04T03:35:20.088Z,7.73
2019-01-04T03:37:49.246Z,7.67
2019-01-04T03:40:19.071Z,9.03
2019-01-04T03:42:48.351Z,7.27
2019-01-04T03:45:18.541Z,9.23
2019-01-04T03:47:49.276Z,11.40
2019-01-04T03:50:18.929Z,9.77
2019-01-04T03:52:48.265Z,11.83
2019-01-04T03:55:17.456Z,8.40
2019-01-04T03:57:47.027Z,6.80
2019-01-04T04:00:16.379Z,10.40
2019-01-04T04:02:49.569Z,10.47
2019-01-04T04:05:18.731Z,9.80
2019-01-04T04:07:48.564Z,12.17
2019-01-04T04:10:17.754Z,10.43
2019-01-04T04:12:47.184Z,13.50
2019-01-04T04:15:16.343Z,7.43
2019-01-04T04:17:46.190Z,13.47
2019-01-04T04:20:15.343Z,9.43
2019-01-04T04:22:44.793Z,14.20
2019-01-04T04:25:13.999Z,18.27
2019-01-04T04:27:43.431Z,12.37
2019-01-04T04:30:12.900Z,11.93
2019-01-04T04:32:42.397Z,11.30
2019-01-04T04:35:11.559Z,16.00
2019-01-04T04:37:41.014Z,11.80
2019-01-04T04:40:10.703Z,15.57
2019-01-04T04:42:40.011Z,16.77
2019-01-04T04:45:09.165Z,14.40
2019-01-04T04:47:38.654Z,22.37
2019-01-04T04:50:08.267Z,24.80
2019-01-04T04:52:37.663Z,19.00
2019-01-04T04:55:07.552Z,14.10
2019-01-04T04:57:39.580Z,17.63
2019-01-04T05:00:09.351Z,19.17
2019-01-04T05:02:40.607Z,19.23
2019-01-04T05:05:10.075Z,18.20
2019-01-04T05:07:39.309Z,15.57
2019-01-04T05:10:08.875Z,14.63
2019-01-04T05:12:38.039Z,24.87
2019-01-04T05:15:13.002Z,18.57
2019-01-04T05:17:42.292Z,16.67
2019-01-04T05:20:11.999Z,19.97
2019-01-04T05:22:42.489Z,20.30
2019-01-04T05:25:12.264Z,24.10
2019-01-04T05:27:41.427Z,18.57
2019-01-04T05:30:10.905Z,16.43
2019-01-04T05:32:40.403Z,24.80
2019-01-04T05:35:09.878Z,22.83
2019-01-04T05:37:39.389Z,21.97
2019-01-04T05:40:09.698Z,25.53
2019-01-04T05:42:40.849Z,25.00
2019-01-04T05:45:11.156Z,22.13
2019-01-04T05:47:40.688Z,27.00
2019-01-04T05:50:10.178Z,22.07
2019-01-04T05:52:40.498Z,22.77
2019-01-04T05:55:10.910Z,21.43
2019-01-04T05:57:40.329Z,22.07
2019-01-04T06:00:11.477Z,21.70
2019-01-04T06:02:41.013Z,21.13
2019-01-04T06:05:10.486Z,28.57
2019-01-04T06:07:40.806Z,51.70
2019-01-04T06:10:11.183Z,26.67
2019-01-04T06:12:40.647Z,22.40
2019-01-04T06:15:09.831Z,28.17
2019-01-04T06:17:39.659Z,22.57
2019-01-04T06:20:10.248Z,22.27
2019-01-04T06:22:39.488Z,25.60
2019-01-04T06:25:08.996Z,26.50
2019-01-04T06:27:38.479Z,24.37
2019-01-04T06:30:08.923Z,30.87
2019-01-04T06:32:38.372Z,38.37
2019-01-04T06:35:07.967Z,35.73
2019-01-04T06:37:37.345Z,44.53
2019-01-04T06:40:09.712Z,39.90
2019-01-04T06:42:40.039Z,48.80
2019-01-04T06:45:10.432Z,53.10
2019-01-04T06:47:39.919Z,55.10
2019-01-04T06:50:10.161Z,41.43
2019-01-04T06:52:39.386Z,44.30
2019-01-04T06:55:20.917Z,50.23
2019-01-04T06:57:50.325Z,47.50
2019-01-04T07:00:19.674Z,40.93
2019-01-04T07:02:49.178Z,42.37
2019-01-04T07:05:18.359Z,43.20
2019-01-04T07:07:47.778Z,42.43
2019-01-04T07:10:17.206Z,46.73
2019-01-04T07:12:47.609Z,43.87
2019-01-04T07:15:16.861Z,42.33
2019-01-04T07:17:47.262Z,38.37
2019-01-04T07:20:16.944Z,36.73
2019-01-04T07:22:46.601Z,43.30
2019-01-04T07:25:16.007Z,36.47
2019-01-04T07:27:45.859Z,38.10
2019-01-04T07:30:15.195Z,37.10
2019-01-04T07:32:44.579Z,35.70
2019-01-04T07:35:14.373Z,32.43
2019-01-04T07:37:43.904Z,34.00
2019-01-04T07:40:14.239Z,34.17
2019-01-04T07:42:44.613Z,39.23
2019-01-04T07:45:14.065Z,39.43
2019-01-04T07:47:43.313Z,36.70
2019-01-04T07:50:12.733Z,33.57
2019-01-04T07:52:42.970Z,34.13
2019-01-04T07:55:12.502Z,44.43
2019-01-04T07:57:41.656Z,38.30
2019-01-04T08:00:12.758Z,35.57
2019-01-04T08:02:43.510Z,34.57
2019-01-04T08:05:17.875Z,50.43
2019-01-04T08:07:50.668Z,45.80
2019-01-04T08:10:19.846Z,40.93
2019-01-04T08:12:48.997Z,36.40
2019-01-04T08:15:18.462Z,46.17
2019-01-04T08:17:47.869Z,41.77
2019-01-04T08:20:18.630Z,41.97
2019-01-04T08:22:48.144Z,37.10
2019-01-04T08:25:19.264Z,41.60
2019-01-04T08:27:48.417Z,40.57
2019-01-04T08:30:17.964Z,40.33
2019-01-04T08:32:47.482Z,40.83
2019-01-04T08:35:16.871Z,45.73
2019-01-04T08:37:46.468Z,41.37
2019-01-04T08:40:15.632Z,44.33
2019-01-04T08:42:44.967Z,43.47
2019-01-04T08:45:14.156Z,43.33
2019-01-04T08:47:43.566Z,41.87
2019-01-04T08:50:12.808Z,41.37
2019-01-04T08:52:42.087Z,43.60
2019-01-04T08:55:11.742Z,47.67
2019-01-04T08:57:41.174Z,48.00
2019-01-04T09:00:12.994Z,42.57
2019-01-04T09:02:42.738Z,48.03
2019-01-04T09:05:12.150Z,47.73
2019-01-04T09:07:41.350Z,54.73
2019-01-04T09:10:10.813Z,52.23
2019-01-04T09:12:40.276Z,46.53
2019-01-04T09:15:10.178Z,47.27
2019-01-04T09:17:40.498Z,55.37
2019-01-04T09:20:10.002Z,48.23
2019-01-04T09:22:39.279Z,45.50
2019-01-04T09:25:09.277Z,43.70
2019-01-04T09:27:38.936Z,45.00
2019-01-04T09:30:11.706Z,43.93
2019-01-04T09:32:40.858Z,44.90
2019-01-04T09:35:10.097Z,43.03
2019-01-04T09:37:39.387Z,41.60
2019-01-04T09:40:09.638Z,40.73
2019-01-04T09:42:38.875Z,44.67
2019-01-04T09:45:09.110Z,42.17
2019-01-04T09:47:38.275Z,44.90
2019-01-04T09:50:08.485Z,51.23
2019-01-04T09:52:37.700Z,42.13
2019-01-04T09:55:07.173Z,42.87
2019-01-04T09:57:36.331Z,36.67
2019-01-04T10:00:08.879Z,44.57
2019-01-04T10:02:38.172Z,34.90
2019-01-04T10:05:08.291Z,41.40
2019-01-04T10:07:37.484Z,38.70
2019-01-04T10:10:09.086Z,36.40
2019-01-04T10:12:39.809Z,39.13
2019-01-04T10:15:13.259Z,44.60
2019-01-04T10:17:42.552Z,47.83
2019-01-04T10:20:11.891Z,44.33
2019-01-04T10:22:41.571Z,44.13
2019-01-04T10:25:10.878Z,44.43
2019-01-04T10:27:40.171Z,35.50
2019-01-04T10:30:11.475Z,44.80
2019-01-04T10:32:41.636Z,33.30
2019-01-04T10:35:11.152Z,44.97
2019-01-04T10:37:41.042Z,40.20
2019-01-04T10:40:11.160Z,36.33
2019-01-04T10:42:40.878Z,35.90
2019-01-04T10:45:10.379Z,36.07
2019-01-04T10:47:40.712Z,35.70
2019-01-04T10:50:11.101Z,29.47
2019-01-04T10:52:40.950Z,34.13
2019-01-04T10:55:10.187Z,33.27
2019-01-04T10:57:39.558Z,31.30
2019-01-04T11:00:11.511Z,31.77
2019-01-04T11:02:41.829Z,34.80
2019-01-04T11:05:11.057Z,32.63
2019-01-04T11:07:40.583Z,37.27
2019-01-04T11:10:14.469Z,42.37
2019-01-04T11:12:43.618Z,34.97
2019-01-04T11:15:13.463Z,45.30
2019-01-04T11:17:42.628Z,40.70
2019-01-04T11:20:33.209Z,35.00
2019-01-04T11:23:05.058Z,31.30
2019-01-04T11:26:00.517Z,36.23
2019-01-04T11:28:44.503Z,32.10
2019-01-04T11:31:22.347Z,37.17
2019-01-04T11:33:57.620Z,33.10
2019-01-04T11:36:39.210Z,33.10
2019-01-04T11:39:22.209Z,33.73
2019-01-04T11:41:57.361Z,33.10
2019-01-04T11:44:47.823Z,37.00
2019-01-04T11:47:32.543Z,33.07
2019-01-04T11:50:22.960Z,43.43
2019-01-04T11:52:52.534Z,38.47
2019-01-04T11:55:21.936Z,36.37
2019-01-04T11:57:51.094Z,38.20
2019-01-04T12:00:20.643Z,40.00
2019-01-04T12:02:50.043Z,36.33
2019-01-04T12:05:20.374Z,42.43
2019-01-04T12:07:49.878Z,42.03
2019-01-04T12:10:19.043Z,43.97
2019-01-04T12:12:48.471Z,44.13
2019-01-04T12:15:17.673Z,40.63
2019-01-04T12:17:49.138Z,40.40
2019-01-04T12:20:18.621Z,41.03
2019-01-04T12:22:47.904Z,37.10
2019-01-04T12:28:58.413Z,31.93
2019-01-04T12:31:27.587Z,34.03
2019-01-04T12:33:57.011Z,33.53
2019-01-04T12:36:42.920Z,31.97
2019-01-04T12:39:12.087Z,33.20
2019-01-04T12:41:41.509Z,34.57
2019-01-04T12:44:10.716Z,35.77
2019-01-04T12:46:40.100Z,30.53
2019-01-04T12:49:09.268Z,28.07
2019-01-04T12:51:38.711Z,27.63
2019-01-04T12:54:09.099Z,31.33
2019-01-04T12:56:38.543Z,28.83
2019-01-04T12:59:07.751Z,33.77
2019-01-04T13:01:36.961Z,34.77
2019-01-04T13:04:06.225Z,28.83
2019-01-04T13:06:35.503Z,31.43
2019-01-04T13:09:06.862Z,28.27
2019-01-04T13:11:37.252Z,28.40
2019-01-04T13:14:06.553Z,31.37
2019-01-04T13:16:35.879Z,26.80
2019-01-04T13:19:05.319Z,30.73
2019-01-04T13:21:34.536Z,28.63
2019-01-04T13:24:03.916Z,33.67
2019-01-04T13:26:35.066Z,27.37
2019-01-04T13:29:04.271Z,26.37
2019-01-04T13:31:33.449Z,24.20
2019-01-04T13:34:02.672Z,27.60
2019-01-04T13:36:31.924Z,34.57
2019-01-04T13:39:01.349Z,37.13
2019-01-04T13:41:30.519Z,26.60
2019-01-04T13:43:59.999Z,23.20
2019-01-04T13:46:29.458Z,24.67
2019-01-04T13:48:58.614Z,28.13
2019-01-04T13:51:28.477Z,26.83
2019-01-04T13:53:57.633Z,24.87
2019-01-04T13:56:27.095Z,31.77
2019-01-04T13:58:56.991Z,31.47
2019-01-04T14:01:26.149Z,35.60
2019-01-04T14:03:55.610Z,32.30
2019-01-04T14:06:24.806Z,35.37
2019-01-04T14:08:55.012Z,41.93
2019-01-04T14:11:24.171Z,41.50
2019-01-04T14:13:54.027Z,37.63
2019-01-04T14:16:24.350Z,38.07
2019-01-04T14:18:53.510Z,48.97
2019-01-04T14:21:22.990Z,49.40
2019-01-04T14:23:52.523Z,49.70
2019-01-04T14:26:21.991Z,51.33
2019-01-04T14:28:51.497Z,52.90
2019-01-04T14:31:20.973Z,49.73
2019-01-04T14:33:50.134Z,52.87
2019-01-04T14:36:20.801Z,64.10
2019-01-04T14:38:49.979Z,63.03
2019-01-04T14:41:23.298Z,54.17
2019-01-04T14:43:50.960Z,74.50
2019-01-04T14:46:20.126Z,63.07
2019-01-04T14:48:49.562Z,55.37
2019-01-04T14:51:19.881Z,63.77
2019-01-04T14:53:49.054Z,51.20
2019-01-04T14:56:18.925Z,58.93
2019-01-04T14:58:48.429Z,49.83
2019-01-04T15:01:17.905Z,52.30
2019-01-04T15:03:47.061Z,47.57
2019-01-04T15:06:16.610Z,49.10
2019-01-04T15:08:46.027Z,48.70
2019-01-04T15:11:15.191Z,52.80
2019-01-04T15:13:44.649Z,49.03
2019-01-04T15:16:14.161Z,51.33
2019-01-04T15:18:43.627Z,53.20
2019-01-04T15:21:12.822Z,56.70
2019-01-04T15:23:42.223Z,62.97
2019-01-04T15:26:11.377Z,56.67
2019-01-04T15:28:41.247Z,67.87
2019-01-04T15:31:10.812Z,73.20
2019-01-04T15:33:40.237Z,67.17
2019-01-04T15:36:09.751Z,72.27
2019-01-04T15:38:38.920Z,73.97
2019-01-04T15:41:08.498Z,70.63
2019-01-04T15:43:38.267Z,79.90
2019-01-04T15:46:07.439Z,69.80
2019-01-04T15:48:36.871Z,82.50
2019-01-04T15:51:06.067Z,73.53
2019-01-04T15:53:35.525Z,86.90
2019-01-04T15:56:04.760Z,75.07
2019-01-04T15:58:34.479Z,70.27
2019-01-04T16:01:03.646Z,82.37
2019-01-04T16:03:33.099Z,77.70
2019-01-04T16:06:02.379Z,87.97
2019-01-04T16:08:31.693Z,79.40
2019-01-04T16:11:00.853Z,83.87
2019-01-04T16:13:30.327Z,80.30
2019-01-04T16:15:59.801Z,89.90
2019-01-04T16:18:30.503Z,86.83
2019-01-04T16:20:59.705Z,88.00
2019-01-04T16:23:29.120Z,92.37
2019-01-04T16:25:58.294Z,79.87
2019-01-04T16:28:28.125Z,95.23
2019-01-04T16:30:57.291Z,89.20
2019-01-04T16:33:26.726Z,86.83
2019-01-04T16:35:55.935Z,87.03
2019-01-04T16:38:25.339Z,89.87
2019-01-04T16:40:55.702Z,98.03
2019-01-04T16:43:25.401Z,94.83
2019-01-04T16:45:54.752Z,100.23
2019-01-04T16:48:24.179Z,112.93
2019-01-04T16:50:53.378Z,112.00
2019-01-04T16:53:22.779Z,102.33
2019-01-04T16:55:58.020Z,100.57
2019-01-04T16:58:27.529Z,102.27
2019-01-04T17:00:57.035Z,106.30
2019-01-04T17:03:26.202Z,106.37
2019-01-04T17:05:55.683Z,105.27
2019-01-04T17:08:25.155Z,116.87
2019-01-04T17:10:54.642Z,103.77
2019-01-04T17:13:23.862Z,109.80
2019-01-04T17:15:55.938Z,104.33
2019-01-04T17:18:24.394Z,96.33
2019-01-04T17:20:53.967Z,99.50
2019-01-04T17:23:23.449Z,99.47
2019-01-04T17:25:52.897Z,111.77
2019-01-04T17:28:22.097Z,103.40
2019-01-04T17:30:52.732Z,102.83
2019-01-04T17:33:21.899Z,103.73
2019-01-04T17:35:51.743Z,103.67
2019-01-04T17:38:23.253Z,103.37
2019-01-04T17:40:52.415Z,96.17
2019-01-04T17:43:21.941Z,104.90
2019-01-04T17:45:51.402Z,97.17
2019-01-04T17:48:20.901Z,98.83
2019-01-04T17:50:50.112Z,93.67
2019-01-04T17:53:19.508Z,91.03
2019-01-04T17:55:49.829Z,101.73
2019-01-04T17:58:19.027Z,91.10
2019-01-04T18:00:48.432Z,92.37
2019-01-04T18:03:17.616Z,106.10
2019-01-04T18:05:47.482Z,83.67
2019-01-04T18:08:16.969Z,88.00
2019-01-04T18:10:46.135Z,93.07
2019-01-04T18:13:15.345Z,86.53
2019-01-04T18:15:44.655Z,83.33
2019-01-04T18:18:16.680Z,88.67
2019-01-04T18:20:46.153Z,102.40
2019-01-04T18:23:15.773Z,99.40
2019-01-04T18:25:45.121Z,99.13
2019-01-04T18:28:14.343Z,88.27
2019-01-04T18:30:43.726Z,88.43
2019-01-04T18:33:14.092Z,92.90
2019-01-04T18:35:43.590Z,82.73
2019-01-04T18:38:12.766Z,84.63
2019-01-04T18:40:42.200Z,85.67
2019-01-04T18:43:11.701Z,87.13
2019-01-04T18:45:41.173Z,76.90
2019-01-04T18:48:10.330Z,83.97
2019-01-04T18:50:39.821Z,88.63
2019-01-04T18:53:09.272Z,93.67
2019-01-04T18:55:39.589Z,96.77
2019-01-04T18:58:09.971Z,93.20
2019-01-04T19:00:41.837Z,85.00
2019-01-04T19:03:11.067Z,89.93
2019-01-04T19:05:40.525Z,99.53
2019-01-04T19:08:10.075Z,96.53
2019-01-04T19:10:39.504Z,86.57
2019-01-04T19:13:09.010Z,101.57
2019-01-04T19:15:38.244Z,88.37
2019-01-04T19:18:07.614Z,96.77
2019-01-04T19:20:37.162Z,91.90
2019-01-04T19:23:06.391Z,88.23
2019-01-04T19:25:35.761Z,101.27
2019-01-04T19:28:05.267Z,102.93
2019-01-04T19:30:34.739Z,93.87
2019-01-04T19:33:04.295Z,98.40
2019-01-04T19:35:36.235Z,96.63
2019-01-04T19:38:04.888Z,102.97
2019-01-04T19:40:34.059Z,97.90
2019-01-04T19:43:03.573Z,106.67
2019-01-04T19:45:33.137Z,107.63
2019-01-04T19:48:02.489Z,103.80
2019-01-04T19:50:32.874Z,107.87
2019-01-04T19:53:02.324Z,112.73
2019-01-04T19:55:31.826Z,97.53
2019-01-04T19:58:02.563Z,108.47
2019-01-04T20:00:31.726Z,115.67
2019-01-04T20:03:01.167Z,108.23
2019-01-04T20:05:50.695Z,106.03
2019-01-04T20:08:44.087Z,110.37
2019-01-04T20:11:42.473Z,113.43
2019-01-04T20:14:31.356Z,114.00
2019-01-04T20:17:10.230Z,115.17
2019-01-04T20:19:48.855Z,118.63
2019-01-04T20:22:23.020Z,118.00
2019-01-04T20:25:10.125Z,118.87
2019-01-04T20:27:57.582Z,120.53
2019-01-04T20:30:46.624Z,119.60
2019-01-04T20:33:22.968Z,130.93
2019-01-04T20:36:10.027Z,121.27
2019-01-04T20:38:42.159Z,139.20
2019-01-04T20:41:12.959Z,137.37
2019-01-04T20:43:53.453Z,131.60
2019-01-04T20:46:33.484Z,135.70
2019-01-04T20:49:07.343Z,133.73
2019-01-04T20:51:41.627Z,143.03
2019-01-04T20:54:28.563Z,125.47
2019-01-04T20:56:59.494Z,130.53
2019-01-04T20:59:47.167Z,130.83
2019-01-04T21:02:34.226Z,136.67
2019-01-04T21:05:07.857Z,133.97
2019-01-04T21:07:50.751Z,143.87
2019-01-04T21:10:37.901Z,140.63
2019-01-04T21:13:14.743Z,137.23
2019-01-04T21:16:02.880Z,150.30
2019-01-04T21:18:33.883Z,127.70
2019-01-04T21:21:21.361Z,132.03
2019-01-04T21:24:01.141Z,126.37
2019-01-04T21:26:36.104Z,128.70
2019-01-04T21:29:10.654Z,138.13
2019-01-04T21:31:57.582Z,129.90
2019-01-04T21:34:28.631Z,133.50
2019-01-04T21:37:17.141Z,141.07
2019-01-04T21:39:50.826Z,147.20
2019-01-04T21:42:31.149Z,146.07
2019-01-04T21:45:17.432Z,157.07
2019-01-04T21:48:04.955Z,149.83
2019-01-04T21:50:39.979Z,148.43
2019-01-04T21:53:23.255Z,147.27
2019-01-04T21:56:00.333Z,153.20
2019-01-04T21:58:31.312Z,151.17
2019-01-04T22:01:17.695Z,161.37
2019-01-04T22:04:01.058Z,149.13
2019-01-04T22:06:48.392Z,157.40
2019-01-04T22:09:31.521Z,160.43
2019-01-04T22:12:03.491Z,153.07
2019-01-04T22:14:34.298Z,162.67
2019-01-04T22:17:11.574Z,171.70
2019-01-04T22:19:42.653Z,163.70
2019-01-04T22:22:13.463Z,164.63
2019-01-04T22:24:53.099Z,162.07
2019-01-04T22:27:32.689Z,162.13
2019-01-04T22:30:06.649Z,154.03
2019-01-04T22:32:54.101Z,155.70
2019-01-04T22:35:41.564Z,151.40
2019-01-04T22:38:15.587Z,164.53
2019-01-04T22:41:05.121Z,169.10
2019-01-04T22:43:48.153Z,165.17
2019-01-04T22:46:23.173Z,166.33
2019-01-04T22:49:00.441Z,168.03
2019-01-04T22:51:48.531Z,160.90
2019-01-04T22:54:35.816Z,160.90
2019-01-04T22:57:12.802Z,159.97
2019-01-04T22:59:49.486Z,151.03
2019-01-04T23:02:32.293Z,166.10
2019-01-04T23:05:15.295Z,145.03
2019-01-04T23:08:02.691Z,157.27
2019-01-04T23:10:49.710Z,131.13
2019-01-04T23:13:20.922Z,152.00
2019-01-04T23:15:54.175Z,138.27
2019-01-04T23:18:41.641Z,137.87
2019-01-04T23:22:07.543Z,134.60
2019-01-04T23:24:45.604Z,133.23
2019-01-04T23:27:32.766Z,138.97
2019-01-04T23:30:13.117Z,130.53
2019-01-04T23:33:00.527Z,129.43
2019-01-04T23:35:47.581Z,125.17
2019-01-04T23:38:25.848Z,124.60
2019-01-04T23:40:56.997Z,126.77
2019-01-04T23:43:27.865Z,131.70
2019-01-04T23:46:07.858Z,128.43
2019-01-04T23:48:39.116Z,116.60
2019-01-04T23:51:09.999Z,117.03
2019-01-04T23:53:55.891Z,110.60
2019-01-04T23:56:43.984Z,117.53
2019-01-04T23:59:15.515Z,115.90
